sensor_id;sensor_type;location;lat;lon;timestamp;P1;durP1;ratioP1;P2;durP2;ratioP2
38859;SDS011;24609;48.316;16.174;2022-10-16T00:01:09;38.20;;;17.10;;
38859;SDS011;24609;48.316;16.174;2022-10-16T00:03:37;34.22;;;16.50;;
38859;SDS011;24609;48.316;16.174;2022-10-16T00:06:04;39.42;;;17.38;;
38859;SDS011;24609;48.316;16.174;2022-10-16T00:08:30;34.90;;;18.98;;
38859;SDS011;24609;48.316;16.174;2022-10-16T00:11:03;36.35;;;17.23;;
38859;SDS011;24609;48.316;16.174;2022-10-16T00:13:40;32.67;;;16.80;;
38859;SDS011;24609;48.316;16.174;2022-10-16T00:16:07;35.83;;;18.52;;
38859;SDS011;24609;48.316;16.174;2022-10-16T00:18:34;33.67;;;16.77;;
38859;SDS011;24609;48.316;16.174;2022-10-16T00:21:07;31.83;;;16.98;;
38859;SDS011;24609;48.316;16.174;2022-10-16T00:23:34;30.88;;;16.80;;
38859;SDS011;24609;48.316;16.174;2022-10-16T00:26:02;36.92;;;15.85;;
38859;SDS011;24609;48.316;16.174;2022-10-16T00:28:30;25.23;;;14.90;;
38859;SDS011;24609;48.316;16.174;2022-10-16T00:30:56;23.88;;;14.13;;
38859;SDS011;24609;48.316;16.174;2022-10-16T00:33:22;25.48;;;14.35;;
38859;SDS011;24609;48.316;16.174;2022-10-16T00:35:48;28.10;;;16.17;;
38859;SDS011;24609;48.316;16.174;2022-10-16T00:38:15;34.72;;;16.13;;
38859;SDS011;24609;48.316;16.174;2022-10-16T00:40:41;27.50;;;15.38;;
38859;SDS011;24609;48.316;16.174;2022-10-16T00:46:17;30.48;;;15.68;;
38859;SDS011;24609;48.316;16.174;2022-10-16T00:49:12;30.65;;;15.73;;
38859;SDS011;24609;48.316;16.174;2022-10-16T00:54:12;27.27;;;13.10;;
38859;SDS011;24609;48.316;16.174;2022-10-16T00:56:40;26.90;;;15.13;;
38859;SDS011;24609;48.316;16.174;2022-10-16T00:59:11;26.50;;;14.75;;
38859;SDS011;24609;48.316;16.174;2022-10-16T01:01:41;33.92;;;15.98;;
38859;SDS011;24609;48.316;16.174;2022-10-16T01:04:06;24.92;;;13.32;;
38859;SDS011;24609;48.316;16.174;2022-10-16T01:11:57;22.08;;;11.88;;
38859;SDS011;24609;48.316;16.174;2022-10-16T01:14:38;19.45;;;10.85;;
38859;SDS011;24609;48.316;16.174;2022-10-16T01:20:04;16.90;;;9.73;;
38859;SDS011;24609;48.316;16.174;2022-10-16T01:28:09;12.63;;;8.18;;
38859;SDS011;24609;48.316;16.174;2022-10-16T01:30:38;11.95;;;7.20;;
38859;SDS011;24609;48.316;16.174;2022-10-16T01:33:11;16.65;;;9.32;;
38859;SDS011;24609;48.316;16.174;2022-10-16T01:35:42;14.88;;;8.70;;
38859;SDS011;24609;48.316;16.174;2022-10-16T01:38:19;11.70;;;7.28;;
38859;SDS011;24609;48.316;16.174;2022-10-16T01:40:48;9.73;;;6.50;;
38859;SDS011;24609;48.316;16.174;2022-10-16T01:43:19;12.55;;;7.28;;
38859;SDS011;24609;48.316;16.174;2022-10-16T01:45:47;11.80;;;7.38;;
38859;SDS011;24609;48.316;16.174;2022-10-16T01:48:16;18.90;;;8.35;;
38859;SDS011;24609;48.316;16.174;2022-10-16T01:50:44;11.73;;;7.32;;
38859;SDS011;24609;48.316;16.174;2022-10-16T01:53:24;11.50;;;6.47;;
38859;SDS011;24609;48.316;16.174;2022-10-16T01:55:51;12.30;;;6.90;;
38859;SDS011;24609;48.316;16.174;2022-10-16T01:58:19;12.52;;;7.90;;
38859;SDS011;24609;48.316;16.174;2022-10-16T02:00:46;10.07;;;6.03;;
38859;SDS011;24609;48.316;16.174;2022-10-16T02:03:14;9.55;;;6.30;;
38859;SDS011;24609;48.316;16.174;2022-10-16T02:05:45;11.75;;;7.28;;
38859;SDS011;24609;48.316;16.174;2022-10-16T02:08:15;10.80;;;6.40;;
38859;SDS011;24609;48.316;16.174;2022-10-16T02:10:41;10.02;;;6.22;;
38859;SDS011;24609;48.316;16.174;2022-10-16T02:15:51;10.70;;;6.57;;
38859;SDS011;24609;48.316;16.174;2022-10-16T02:18:17;10.52;;;6.25;;
38859;SDS011;24609;48.316;16.174;2022-10-16T02:20:53;8.30;;;5.45;;
38859;SDS011;24609;48.316;16.174;2022-10-16T02:23:25;10.55;;;6.57;;
38859;SDS011;24609;48.316;16.174;2022-10-16T02:26:13;9.57;;;6.15;;
38859;SDS011;24609;48.316;16.174;2022-10-16T02:28:47;11.27;;;6.82;;
38859;SDS011;24609;48.316;16.174;2022-10-16T02:31:21;12.65;;;7.28;;
38859;SDS011;24609;48.316;16.174;2022-10-16T02:33:52;14.75;;;7.43;;
38859;SDS011;24609;48.316;16.174;2022-10-16T02:36:22;11.40;;;6.45;;
38859;SDS011;24609;48.316;16.174;2022-10-16T02:38:48;10.85;;;6.63;;
38859;SDS011;24609;48.316;16.174;2022-10-16T02:41:15;12.70;;;7.63;;
38859;SDS011;24609;48.316;16.174;2022-10-16T02:43:40;14.60;;;8.13;;
38859;SDS011;24609;48.316;16.174;2022-10-16T02:46:06;11.98;;;6.80;;
38859;SDS011;24609;48.316;16.174;2022-10-16T02:48:32;11.00;;;6.30;;
38859;SDS011;24609;48.316;16.174;2022-10-16T02:50:58;12.02;;;6.82;;
38859;SDS011;24609;48.316;16.174;2022-10-16T02:53:24;12.50;;;7.40;;
38859;SDS011;24609;48.316;16.174;2022-10-16T02:55:49;13.32;;;7.15;;
38859;SDS011;24609;48.316;16.174;2022-10-16T02:58:15;11.50;;;7.35;;
38859;SDS011;24609;48.316;16.174;2022-10-16T03:00:40;12.32;;;7.47;;
38859;SDS011;24609;48.316;16.174;2022-10-16T03:03:07;15.65;;;7.80;;
38859;SDS011;24609;48.316;16.174;2022-10-16T03:05:32;17.13;;;8.32;;
38859;SDS011;24609;48.316;16.174;2022-10-16T03:07:58;13.40;;;8.05;;
38859;SDS011;24609;48.316;16.174;2022-10-16T03:10:25;12.70;;;7.53;;
38859;SDS011;24609;48.316;16.174;2022-10-16T03:12:51;10.43;;;6.72;;
38859;SDS011;24609;48.316;16.174;2022-10-16T03:15:17;12.48;;;7.80;;
38859;SDS011;24609;48.316;16.174;2022-10-16T03:17:43;10.80;;;6.85;;
38859;SDS011;24609;48.316;16.174;2022-10-16T03:20:08;14.52;;;8.30;;
38859;SDS011;24609;48.316;16.174;2022-10-16T03:22:34;18.13;;;8.52;;
38859;SDS011;24609;48.316;16.174;2022-10-16T03:25:00;19.17;;;7.40;;
38859;SDS011;24609;48.316;16.174;2022-10-16T03:27:26;20.73;;;8.52;;
38859;SDS011;24609;48.316;16.174;2022-10-16T03:29:51;11.15;;;6.18;;
38859;SDS011;24609;48.316;16.174;2022-10-16T03:32:17;13.57;;;7.55;;
38859;SDS011;24609;48.316;16.174;2022-10-16T03:34:43;16.85;;;7.95;;
38859;SDS011;24609;48.316;16.174;2022-10-16T03:37:09;16.55;;;8.20;;
38859;SDS011;24609;48.316;16.174;2022-10-16T03:39:35;23.33;;;9.25;;
38859;SDS011;24609;48.316;16.174;2022-10-16T03:42:00;13.50;;;7.45;;
38859;SDS011;24609;48.316;16.174;2022-10-16T03:44:26;13.02;;;7.60;;
38859;SDS011;24609;48.316;16.174;2022-10-16T03:46:52;14.65;;;8.20;;
38859;SDS011;24609;48.316;16.174;2022-10-16T03:49:17;15.02;;;7.93;;
38859;SDS011;24609;48.316;16.174;2022-10-16T03:51:43;11.80;;;7.20;;
38859;SDS011;24609;48.316;16.174;2022-10-16T03:54:09;18.65;;;8.10;;
38859;SDS011;24609;48.316;16.174;2022-10-16T03:56:35;14.85;;;7.40;;
38859;SDS011;24609;48.316;16.174;2022-10-16T03:59:01;14.93;;;6.93;;
38859;SDS011;24609;48.316;16.174;2022-10-16T04:01:26;9.60;;;6.00;;
38859;SDS011;24609;48.316;16.174;2022-10-16T04:03:52;20.05;;;6.90;;
38859;SDS011;24609;48.316;16.174;2022-10-16T04:06:18;10.00;;;5.78;;
38859;SDS011;24609;48.316;16.174;2022-10-16T04:08:44;9.32;;;5.80;;
38859;SDS011;24609;48.316;16.174;2022-10-16T04:11:09;7.40;;;5.00;;
38859;SDS011;24609;48.316;16.174;2022-10-16T04:13:36;9.27;;;5.93;;
38859;SDS011;24609;48.316;16.174;2022-10-16T04:16:01;20.58;;;5.60;;
38859;SDS011;24609;48.316;16.174;2022-10-16T04:18:27;9.75;;;6.30;;
38859;SDS011;24609;48.316;16.174;2022-10-16T04:20:54;16.40;;;6.70;;
38859;SDS011;24609;48.316;16.174;2022-10-16T04:23:19;9.13;;;4.72;;
38859;SDS011;24609;48.316;16.174;2022-10-16T04:25:45;27.05;;;7.82;;
38859;SDS011;24609;48.316;16.174;2022-10-16T04:28:11;13.25;;;6.15;;
38859;SDS011;24609;48.316;16.174;2022-10-16T04:30:39;8.48;;;5.15;;
38859;SDS011;24609;48.316;16.174;2022-10-16T04:33:05;9.52;;;5.35;;
38859;SDS011;24609;48.316;16.174;2022-10-16T04:35:33;10.65;;;6.90;;
38859;SDS011;24609;48.316;16.174;2022-10-16T04:37:59;17.13;;;7.18;;
38859;SDS011;24609;48.316;16.174;2022-10-16T04:40:24;9.18;;;5.88;;
38859;SDS011;24609;48.316;16.174;2022-10-16T04:42:50;12.30;;;5.95;;
38859;SDS011;24609;48.316;16.174;2022-10-16T04:45:16;22.25;;;6.95;;
38859;SDS011;24609;48.316;16.174;2022-10-16T04:47:41;10.43;;;6.57;;
38859;SDS011;24609;48.316;16.174;2022-10-16T04:50:07;40.45;;;10.32;;
38859;SDS011;24609;48.316;16.174;2022-10-16T04:52:33;13.65;;;7.13;;
38859;SDS011;24609;48.316;16.174;2022-10-16T04:54:59;11.02;;;7.15;;
38859;SDS011;24609;48.316;16.174;2022-10-16T04:57:27;9.02;;;5.80;;
38859;SDS011;24609;48.316;16.174;2022-10-16T04:59:54;8.98;;;5.80;;
38859;SDS011;24609;48.316;16.174;2022-10-16T05:02:20;15.20;;;6.72;;
38859;SDS011;24609;48.316;16.174;2022-10-16T05:04:45;9.65;;;5.90;;
38859;SDS011;24609;48.316;16.174;2022-10-16T05:07:11;9.10;;;5.15;;
38859;SDS011;24609;48.316;16.174;2022-10-16T05:09:37;10.73;;;5.75;;
38859;SDS011;24609;48.316;16.174;2022-10-16T05:12:02;10.68;;;4.18;;
38859;SDS011;24609;48.316;16.174;2022-10-16T05:14:28;12.10;;;6.95;;
38859;SDS011;24609;48.316;16.174;2022-10-16T05:16:54;16.65;;;7.93;;
38859;SDS011;24609;48.316;16.174;2022-10-16T05:19:20;13.70;;;7.82;;
38859;SDS011;24609;48.316;16.174;2022-10-16T05:21:45;15.80;;;7.40;;
38859;SDS011;24609;48.316;16.174;2022-10-16T05:24:11;10.98;;;6.22;;
38859;SDS011;24609;48.316;16.174;2022-10-16T05:26:37;11.65;;;5.88;;
38859;SDS011;24609;48.316;16.174;2022-10-16T05:29:03;11.48;;;6.82;;
38859;SDS011;24609;48.316;16.174;2022-10-16T05:31:28;13.70;;;6.45;;
38859;SDS011;24609;48.316;16.174;2022-10-16T05:33:58;9.40;;;5.55;;
38859;SDS011;24609;48.316;16.174;2022-10-16T05:36:25;11.18;;;6.57;;
38859;SDS011;24609;48.316;16.174;2022-10-16T05:38:50;8.07;;;5.43;;
38859;SDS011;24609;48.316;16.174;2022-10-16T05:41:16;14.13;;;7.80;;
38859;SDS011;24609;48.316;16.174;2022-10-16T05:43:46;12.85;;;7.70;;
38859;SDS011;24609;48.316;16.174;2022-10-16T05:46:12;9.65;;;5.65;;
38859;SDS011;24609;48.316;16.174;2022-10-16T05:48:38;14.50;;;7.50;;
38859;SDS011;24609;48.316;16.174;2022-10-16T05:51:08;17.73;;;7.30;;
38859;SDS011;24609;48.316;16.174;2022-10-16T05:53:37;13.18;;;7.28;;
38859;SDS011;24609;48.316;16.174;2022-10-16T05:56:04;11.63;;;7.10;;
38859;SDS011;24609;48.316;16.174;2022-10-16T05:58:32;17.10;;;7.95;;
38859;SDS011;24609;48.316;16.174;2022-10-16T06:01:03;14.77;;;7.90;;
38859;SDS011;24609;48.316;16.174;2022-10-16T06:03:30;11.82;;;6.70;;
38859;SDS011;24609;48.316;16.174;2022-10-16T06:05:56;17.05;;;7.97;;
38859;SDS011;24609;48.316;16.174;2022-10-16T06:08:22;11.88;;;7.03;;
38859;SDS011;24609;48.316;16.174;2022-10-16T06:10:48;13.45;;;7.60;;
38859;SDS011;24609;48.316;16.174;2022-10-16T06:13:14;12.65;;;6.90;;
38859;SDS011;24609;48.316;16.174;2022-10-16T06:15:41;14.48;;;6.97;;
38859;SDS011;24609;48.316;16.174;2022-10-16T06:18:10;22.95;;;8.25;;
38859;SDS011;24609;48.316;16.174;2022-10-16T06:20:36;13.35;;;7.95;;
38859;SDS011;24609;48.316;16.174;2022-10-16T06:23:03;13.52;;;8.15;;
38859;SDS011;24609;48.316;16.174;2022-10-16T06:25:29;20.55;;;9.05;;
38859;SDS011;24609;48.316;16.174;2022-10-16T06:27:56;15.95;;;9.13;;
38859;SDS011;24609;48.316;16.174;2022-10-16T06:30:22;12.57;;;8.00;;
38859;SDS011;24609;48.316;16.174;2022-10-16T06:32:47;14.95;;;8.25;;
38859;SDS011;24609;48.316;16.174;2022-10-16T06:35:13;13.50;;;7.28;;
38859;SDS011;24609;48.316;16.174;2022-10-16T06:37:39;11.30;;;7.45;;
38859;SDS011;24609;48.316;16.174;2022-10-16T06:40:05;37.33;;;24.80;;
38859;SDS011;24609;48.316;16.174;2022-10-16T06:42:31;13.32;;;8.18;;
38859;SDS011;24609;48.316;16.174;2022-10-16T06:44:56;15.18;;;8.35;;
38859;SDS011;24609;48.316;16.174;2022-10-16T06:47:22;10.77;;;7.30;;
38859;SDS011;24609;48.316;16.174;2022-10-16T06:49:48;20.17;;;6.60;;
38859;SDS011;24609;48.316;16.174;2022-10-16T06:52:13;9.65;;;6.15;;
38859;SDS011;24609;48.316;16.174;2022-10-16T06:54:39;11.15;;;6.78;;
38859;SDS011;24609;48.316;16.174;2022-10-16T06:57:05;12.10;;;8.00;;
38859;SDS011;24609;48.316;16.174;2022-10-16T06:59:30;14.63;;;7.72;;
38859;SDS011;24609;48.316;16.174;2022-10-16T07:01:56;10.23;;;7.00;;
38859;SDS011;24609;48.316;16.174;2022-10-16T07:04:22;9.38;;;6.38;;
38859;SDS011;24609;48.316;16.174;2022-10-16T07:06:47;16.25;;;8.23;;
38859;SDS011;24609;48.316;16.174;2022-10-16T07:09:13;18.35;;;10.88;;
38859;SDS011;24609;48.316;16.174;2022-10-16T07:11:39;16.42;;;9.73;;
38859;SDS011;24609;48.316;16.174;2022-10-16T07:14:10;13.27;;;9.07;;
38859;SDS011;24609;48.316;16.174;2022-10-16T07:16:40;15.95;;;9.00;;
38859;SDS011;24609;48.316;16.174;2022-10-16T07:19:06;14.45;;;8.25;;
38859;SDS011;24609;48.316;16.174;2022-10-16T07:21:33;15.77;;;8.82;;
38859;SDS011;24609;48.316;16.174;2022-10-16T07:24:00;17.45;;;9.32;;
38859;SDS011;24609;48.316;16.174;2022-10-16T07:26:27;21.83;;;10.00;;
38859;SDS011;24609;48.316;16.174;2022-10-16T07:28:55;21.97;;;10.17;;
38859;SDS011;24609;48.316;16.174;2022-10-16T07:31:21;20.60;;;10.40;;
38859;SDS011;24609;48.316;16.174;2022-10-16T07:33:48;23.27;;;12.82;;
38859;SDS011;24609;48.316;16.174;2022-10-16T07:36:15;26.65;;;12.60;;
38859;SDS011;24609;48.316;16.174;2022-10-16T07:38:42;26.92;;;13.35;;
38859;SDS011;24609;48.316;16.174;2022-10-16T07:41:09;24.48;;;13.07;;
38859;SDS011;24609;48.316;16.174;2022-10-16T07:43:37;26.90;;;14.75;;
38859;SDS011;24609;48.316;16.174;2022-10-16T07:46:03;26.60;;;13.75;;
38859;SDS011;24609;48.316;16.174;2022-10-16T07:48:30;28.48;;;15.13;;
38859;SDS011;24609;48.316;16.174;2022-10-16T07:50:57;27.95;;;17.13;;
38859;SDS011;24609;48.316;16.174;2022-10-16T07:53:24;34.45;;;18.75;;
38859;SDS011;24609;48.316;16.174;2022-10-16T07:55:50;29.98;;;16.58;;
38859;SDS011;24609;48.316;16.174;2022-10-16T07:58:15;27.02;;;15.93;;
38859;SDS011;24609;48.316;16.174;2022-10-16T08:00:41;25.58;;;15.43;;
38859;SDS011;24609;48.316;16.174;2022-10-16T08:03:07;25.65;;;14.65;;
38859;SDS011;24609;48.316;16.174;2022-10-16T08:05:33;28.42;;;15.48;;
38859;SDS011;24609;48.316;16.174;2022-10-16T08:07:59;30.58;;;17.73;;
38859;SDS011;24609;48.316;16.174;2022-10-16T08:10:26;29.27;;;15.88;;
38859;SDS011;24609;48.316;16.174;2022-10-16T08:12:52;27.38;;;15.60;;
38859;SDS011;24609;48.316;16.174;2022-10-16T08:15:18;25.17;;;14.65;;
38859;SDS011;24609;48.316;16.174;2022-10-16T08:17:53;25.63;;;12.98;;
38859;SDS011;24609;48.316;16.174;2022-10-16T08:20:23;27.05;;;15.43;;
38859;SDS011;24609;48.316;16.174;2022-10-16T08:22:49;24.20;;;13.93;;
38859;SDS011;24609;48.316;16.174;2022-10-16T08:25:14;25.75;;;14.30;;
38859;SDS011;24609;48.316;16.174;2022-10-16T08:27:40;27.92;;;13.65;;
38859;SDS011;24609;48.316;16.174;2022-10-16T08:30:06;23.40;;;12.95;;
38859;SDS011;24609;48.316;16.174;2022-10-16T08:32:32;23.38;;;14.05;;
38859;SDS011;24609;48.316;16.174;2022-10-16T08:34:58;26.17;;;12.80;;
38859;SDS011;24609;48.316;16.174;2022-10-16T08:37:23;24.77;;;13.32;;
38859;SDS011;24609;48.316;16.174;2022-10-16T08:39:49;26.13;;;14.00;;
38859;SDS011;24609;48.316;16.174;2022-10-16T08:50:25;19.25;;;10.40;;
38859;SDS011;24609;48.316;16.174;2022-10-16T08:52:53;27.58;;;13.73;;
38859;SDS011;24609;48.316;16.174;2022-10-16T08:57:54;26.45;;;14.02;;
38859;SDS011;24609;48.316;16.174;2022-10-16T09:00:20;22.25;;;13.23;;
38859;SDS011;24609;48.316;16.174;2022-10-16T09:02:52;19.20;;;11.95;;
38859;SDS011;24609;48.316;16.174;2022-10-16T09:11:33;29.67;;;17.33;;
38859;SDS011;24609;48.316;16.174;2022-10-16T09:17:15;42.40;;;23.02;;
38859;SDS011;24609;48.316;16.174;2022-10-16T09:20:53;34.75;;;19.50;;
38859;SDS011;24609;48.316;16.174;2022-10-16T09:25:30;44.28;;;22.65;;
38859;SDS011;24609;48.316;16.174;2022-10-16T09:27:57;44.72;;;22.02;;
38859;SDS011;24609;48.316;16.174;2022-10-16T09:30:23;48.72;;;22.48;;
38859;SDS011;24609;48.316;16.174;2022-10-16T09:32:54;49.17;;;23.15;;
38859;SDS011;24609;48.316;16.174;2022-10-16T09:35:24;45.90;;;22.67;;
38859;SDS011;24609;48.316;16.174;2022-10-16T09:37:57;47.03;;;21.77;;
38859;SDS011;24609;48.316;16.174;2022-10-16T09:45:37;47.25;;;22.52;;
38859;SDS011;24609;48.316;16.174;2022-10-16T09:48:09;36.42;;;18.15;;
38859;SDS011;24609;48.316;16.174;2022-10-16T09:50:36;48.20;;;22.20;;
38859;SDS011;24609;48.316;16.174;2022-10-16T09:53:13;46.40;;;21.40;;
38859;SDS011;24609;48.316;16.174;2022-10-16T09:55:52;48.65;;;23.55;;
38859;SDS011;24609;48.316;16.174;2022-10-16T09:58:22;42.22;;;22.55;;
38859;SDS011;24609;48.316;16.174;2022-10-16T10:00:50;48.97;;;22.60;;
38859;SDS011;24609;48.316;16.174;2022-10-16T10:03:54;43.70;;;21.88;;
38859;SDS011;24609;48.316;16.174;2022-10-16T10:06:18;40.75;;;22.15;;
38859;SDS011;24609;48.316;16.174;2022-10-16T10:08:59;43.15;;;23.13;;
38859;SDS011;24609;48.316;16.174;2022-10-16T10:11:48;44.83;;;22.10;;
38859;SDS011;24609;48.316;16.174;2022-10-16T10:16:50;33.50;;;18.02;;
38859;SDS011;24609;48.316;16.174;2022-10-16T10:19:18;37.30;;;22.08;;
38859;SDS011;24609;48.316;16.174;2022-10-16T10:21:46;39.63;;;21.45;;
38859;SDS011;24609;48.316;16.174;2022-10-16T10:24:13;43.50;;;22.00;;
38859;SDS011;24609;48.316;16.174;2022-10-16T10:27:23;40.13;;;21.80;;
38859;SDS011;24609;48.316;16.174;2022-10-16T10:29:38;46.47;;;22.40;;
38859;SDS011;24609;48.316;16.174;2022-10-16T10:32:43;33.40;;;19.70;;
38859;SDS011;24609;48.316;16.174;2022-10-16T10:46:36;35.95;;;20.30;;
38859;SDS011;24609;48.316;16.174;2022-10-16T10:54:35;33.55;;;19.50;;
38859;SDS011;24609;48.316;16.174;2022-10-16T10:59:53;32.15;;;19.30;;
38859;SDS011;24609;48.316;16.174;2022-10-16T11:02:50;29.73;;;17.73;;
38859;SDS011;24609;48.316;16.174;2022-10-16T11:05:44;27.27;;;17.92;;
38859;SDS011;24609;48.316;16.174;2022-10-16T11:08:33;27.40;;;17.73;;
38859;SDS011;24609;48.316;16.174;2022-10-16T11:11:16;25.65;;;15.88;;
38859;SDS011;24609;48.316;16.174;2022-10-16T11:14:00;28.00;;;17.33;;
38859;SDS011;24609;48.316;16.174;2022-10-16T11:16:38;28.48;;;19.20;;
38859;SDS011;24609;48.316;16.174;2022-10-16T11:22:02;26.83;;;17.15;;
38859;SDS011;24609;48.316;16.174;2022-10-16T11:29:32;23.63;;;16.05;;
38859;SDS011;24609;48.316;16.174;2022-10-16T11:32:18;25.92;;;17.17;;
38859;SDS011;24609;48.316;16.174;2022-10-16T11:34:52;25.58;;;17.33;;
38859;SDS011;24609;48.316;16.174;2022-10-16T11:37:25;25.38;;;17.10;;
38859;SDS011;24609;48.316;16.174;2022-10-16T11:40:03;28.00;;;17.25;;
38859;SDS011;24609;48.316;16.174;2022-10-16T11:42:41;22.27;;;15.15;;
38859;SDS011;24609;48.316;16.174;2022-10-16T11:50:48;23.13;;;14.45;;
38859;SDS011;24609;48.316;16.174;2022-10-16T11:55:59;22.38;;;14.90;;
38859;SDS011;24609;48.316;16.174;2022-10-16T11:58:30;17.33;;;11.07;;
38859;SDS011;24609;48.316;16.174;2022-10-16T12:01:16;16.02;;;11.68;;
38859;SDS011;24609;48.316;16.174;2022-10-16T12:03:47;18.52;;;12.00;;
38859;SDS011;24609;48.316;16.174;2022-10-16T12:09:22;18.23;;;11.93;;
38859;SDS011;24609;48.316;16.174;2022-10-16T12:11:52;21.05;;;12.70;;
38859;SDS011;24609;48.316;16.174;2022-10-16T12:14:19;20.75;;;13.25;;
38859;SDS011;24609;48.316;16.174;2022-10-16T12:16:53;21.95;;;13.48;;
38859;SDS011;24609;48.316;16.174;2022-10-16T12:19:21;21.08;;;13.02;;
38859;SDS011;24609;48.316;16.174;2022-10-16T12:21:48;28.10;;;13.48;;
38859;SDS011;24609;48.316;16.174;2022-10-16T12:24:22;22.40;;;13.00;;
38859;SDS011;24609;48.316;16.174;2022-10-16T12:26:55;22.35;;;13.20;;
38859;SDS011;24609;48.316;16.174;2022-10-16T12:31:55;24.88;;;14.07;;
38859;SDS011;24609;48.316;16.174;2022-10-16T12:34:28;23.23;;;14.30;;
38859;SDS011;24609;48.316;16.174;2022-10-16T12:37:07;25.10;;;14.93;;
38859;SDS011;24609;48.316;16.174;2022-10-16T12:39:54;23.60;;;14.30;;
38859;SDS011;24609;48.316;16.174;2022-10-16T12:44:49;28.23;;;16.48;;
38859;SDS011;24609;48.316;16.174;2022-10-16T12:47:22;23.88;;;14.55;;
38859;SDS011;24609;48.316;16.174;2022-10-16T12:50:03;28.35;;;16.50;;
38859;SDS011;24609;48.316;16.174;2022-10-16T12:52:48;25.38;;;15.45;;
38859;SDS011;24609;48.316;16.174;2022-10-16T12:55:17;26.52;;;15.88;;
38859;SDS011;24609;48.316;16.174;2022-10-16T12:58:03;23.95;;;14.80;;
38859;SDS011;24609;48.316;16.174;2022-10-16T13:17:41;32.70;;;19.88;;
38859;SDS011;24609;48.316;16.174;2022-10-16T13:20:21;31.80;;;19.42;;
38859;SDS011;24609;48.316;16.174;2022-10-16T13:25:53;33.63;;;17.88;;
38859;SDS011;24609;48.316;16.174;2022-10-16T13:28:39;30.50;;;18.10;;
38859;SDS011;24609;48.316;16.174;2022-10-16T13:31:05;32.15;;;19.08;;
38859;SDS011;24609;48.316;16.174;2022-10-16T13:33:48;35.08;;;20.20;;
38859;SDS011;24609;48.316;16.174;2022-10-16T13:36:23;30.77;;;18.13;;
38859;SDS011;24609;48.316;16.174;2022-10-16T13:39:13;34.40;;;20.00;;
38859;SDS011;24609;48.316;16.174;2022-10-16T13:41:42;34.97;;;18.27;;
38859;SDS011;24609;48.316;16.174;2022-10-16T13:44:17;34.67;;;20.52;;
38859;SDS011;24609;48.316;16.174;2022-10-16T13:46:45;31.70;;;19.85;;
38859;SDS011;24609;48.316;16.174;2022-10-16T13:49:12;34.10;;;18.63;;
38859;SDS011;24609;48.316;16.174;2022-10-16T13:51:37;36.17;;;21.10;;
38859;SDS011;24609;48.316;16.174;2022-10-16T13:54:03;36.65;;;19.23;;
38859;SDS011;24609;48.316;16.174;2022-10-16T13:56:30;36.13;;;20.08;;
38859;SDS011;24609;48.316;16.174;2022-10-16T13:59:01;35.97;;;19.73;;
38859;SDS011;24609;48.316;16.174;2022-10-16T14:01:31;38.92;;;21.83;;
38859;SDS011;24609;48.316;16.174;2022-10-16T14:04:07;37.85;;;21.38;;
38859;SDS011;24609;48.316;16.174;2022-10-16T14:06:35;38.40;;;20.70;;
38859;SDS011;24609;48.316;16.174;2022-10-16T14:09:08;36.78;;;20.20;;
38859;SDS011;24609;48.316;16.174;2022-10-16T14:11:44;36.78;;;20.48;;
38859;SDS011;24609;48.316;16.174;2022-10-16T14:14:19;38.90;;;20.85;;
38859;SDS011;24609;48.316;16.174;2022-10-16T14:16:45;35.33;;;20.38;;
38859;SDS011;24609;48.316;16.174;2022-10-16T14:19:27;37.38;;;20.55;;
38859;SDS011;24609;48.316;16.174;2022-10-16T14:21:54;37.40;;;20.40;;
38859;SDS011;24609;48.316;16.174;2022-10-16T14:24:30;36.17;;;19.83;;
38859;SDS011;24609;48.316;16.174;2022-10-16T14:26:59;33.17;;;19.77;;
38859;SDS011;24609;48.316;16.174;2022-10-16T14:29:26;35.78;;;20.42;;
38859;SDS011;24609;48.316;16.174;2022-10-16T14:31:55;37.38;;;19.65;;
38859;SDS011;24609;48.316;16.174;2022-10-16T14:34:30;43.53;;;22.42;;
38859;SDS011;24609;48.316;16.174;2022-10-16T14:37:00;37.78;;;21.05;;
38859;SDS011;24609;48.316;16.174;2022-10-16T14:39:48;35.55;;;20.45;;
38859;SDS011;24609;48.316;16.174;2022-10-16T14:42:16;34.20;;;20.38;;
38859;SDS011;24609;48.316;16.174;2022-10-16T14:44:44;38.17;;;20.05;;
38859;SDS011;24609;48.316;16.174;2022-10-16T14:47:14;40.20;;;21.48;;
38859;SDS011;24609;48.316;16.174;2022-10-16T14:49:47;38.78;;;20.58;;
38859;SDS011;24609;48.316;16.174;2022-10-16T14:52:13;36.50;;;20.42;;
38859;SDS011;24609;48.316;16.174;2022-10-16T14:54:39;32.17;;;19.23;;
38859;SDS011;24609;48.316;16.174;2022-10-16T14:57:06;39.22;;;20.60;;
38859;SDS011;24609;48.316;16.174;2022-10-16T14:59:45;35.45;;;19.60;;
38859;SDS011;24609;48.316;16.174;2022-10-16T15:04:52;28.67;;;17.38;;
38859;SDS011;24609;48.316;16.174;2022-10-16T15:07:18;33.45;;;17.45;;
38859;SDS011;24609;48.316;16.174;2022-10-16T15:09:44;41.70;;;20.48;;
38859;SDS011;24609;48.316;16.174;2022-10-16T15:12:09;32.28;;;17.98;;
38859;SDS011;24609;48.316;16.174;2022-10-16T15:14:35;30.95;;;17.88;;
38859;SDS011;24609;48.316;16.174;2022-10-16T15:17:01;38.30;;;18.58;;
38859;SDS011;24609;48.316;16.174;2022-10-16T15:19:27;32.03;;;17.90;;
38859;SDS011;24609;48.316;16.174;2022-10-16T15:21:53;34.13;;;18.98;;
38859;SDS011;24609;48.316;16.174;2022-10-16T15:24:18;29.25;;;17.27;;
38859;SDS011;24609;48.316;16.174;2022-10-16T15:26:44;35.80;;;17.80;;
38859;SDS011;24609;48.316;16.174;2022-10-16T15:29:14;28.38;;;16.27;;
38859;SDS011;24609;48.316;16.174;2022-10-16T15:31:40;33.53;;;18.98;;
38859;SDS011;24609;48.316;16.174;2022-10-16T15:34:10;33.35;;;18.35;;
38859;SDS011;24609;48.316;16.174;2022-10-16T15:36:37;28.80;;;17.73;;
38859;SDS011;24609;48.316;16.174;2022-10-16T15:39:10;31.80;;;17.95;;
38859;SDS011;24609;48.316;16.174;2022-10-16T15:41:38;31.52;;;18.40;;
38859;SDS011;24609;48.316;16.174;2022-10-16T15:44:04;27.52;;;15.98;;
38859;SDS011;24609;48.316;16.174;2022-10-16T15:46:29;36.45;;;19.98;;
38859;SDS011;24609;48.316;16.174;2022-10-16T15:48:57;33.95;;;19.35;;
38859;SDS011;24609;48.316;16.174;2022-10-16T15:51:23;34.30;;;19.13;;
38859;SDS011;24609;48.316;16.174;2022-10-16T15:53:50;32.47;;;18.55;;
38859;SDS011;24609;48.316;16.174;2022-10-16T15:56:16;31.33;;;17.38;;
38859;SDS011;24609;48.316;16.174;2022-10-16T15:58:42;36.22;;;18.42;;
38859;SDS011;24609;48.316;16.174;2022-10-16T16:01:08;32.58;;;16.58;;
38859;SDS011;24609;48.316;16.174;2022-10-16T16:03:35;34.25;;;18.13;;
38859;SDS011;24609;48.316;16.174;2022-10-16T16:06:04;37.92;;;20.38;;
38859;SDS011;24609;48.316;16.174;2022-10-16T16:08:30;39.67;;;19.13;;
38859;SDS011;24609;48.316;16.174;2022-10-16T16:11:03;32.58;;;17.33;;
38859;SDS011;24609;48.316;16.174;2022-10-16T16:13:33;35.80;;;18.27;;
38859;SDS011;24609;48.316;16.174;2022-10-16T16:15:59;36.58;;;19.77;;
38859;SDS011;24609;48.316;16.174;2022-10-16T16:18:25;31.30;;;16.77;;
38859;SDS011;24609;48.316;16.174;2022-10-16T16:20:51;33.08;;;17.50;;
38859;SDS011;24609;48.316;16.174;2022-10-16T16:23:17;30.15;;;16.48;;
38859;SDS011;24609;48.316;16.174;2022-10-16T16:25:44;33.17;;;17.55;;
38859;SDS011;24609;48.316;16.174;2022-10-16T16:28:10;30.02;;;17.02;;